Time;durP1;ratioP1;P1;durP2;ratioP2;P2;SDS_P1;SDS_P2;PMS_P1;PMS_P2;Temp;Humidity;BMP_temperature;BMP_pressure;BME280_temperature;BME280_humidity;BME280_pressure;Samples;Min_cycle;Max_cycle;Signal;HPM_P1;HPM_P2
2022/09/10 00:02:16;;;;;;;0.80;0.80;;;19.80;55.50;;;;;;5056391;28;20249;-81
2022/09/10 00:04:43;;;;;;;1.67;0.67;;;20.00;55.10;;;;;;5051909;28;20194;-86
2022/09/10 00:07:11;;;;;;;1.27;0.70;;;19.90;54.20;;;;;;5068463;28;20195;-84
2022/09/10 00:09:40;;;;;;;0.80;0.70;;;20.00;55.30;;;;;;5070594;28;20171;-80
2022/09/10 00:12:07;;;;;;;0.63;0.63;;;20.00;55.10;;;;;;5068059;28;20646;-83
2022/09/10 00:14:34;;;;;;;1.27;0.70;;;20.10;54.20;;;;;;5069153;28;20211;-83
2022/09/10 00:17:04;;;;;;;5.27;0.80;;;20.30;55.20;;;;;;5076552;28;20251;-82
2022/09/10 00:19:31;;;;;;;0.93;0.60;;;20.50;52.90;;;;;;5072444;28;20183;-80
2022/09/10 00:21:58;;;;;;;0.60;0.60;;;20.50;51.30;;;;;;5052994;28;20706;-79
2022/09/10 00:24:26;;;;;;;0.70;0.50;;;20.40;51.00;;;;;;5064895;28;20241;-81
2022/09/10 00:26:53;;;;;;;1.57;0.57;;;20.50;50.90;;;;;;5053543;28;20259;-83
2022/09/10 00:29:21;;;;;;;1.33;0.73;;;20.50;52.00;;;;;;5053394;28;20638;-84
2022/09/10 00:31:48;;;;;;;1.00;0.70;;;20.70;51.60;;;;;;5059220;28;20191;-80
2022/09/10 00:34:16;;;;;;;0.40;0.40;;;20.80;50.60;;;;;;5073593;28;20211;-79
2022/09/10 00:36:45;;;;;;;0.60;0.50;;;20.70;49.30;;;;;;5061137;28;20665;-79
2022/09/10 00:39:15;;;;;;;2.43;0.70;;;20.70;49.50;;;;;;5070983;28;20188;-80
2022/09/10 00:41:46;;;;;;;0.50;0.50;;;20.70;50.20;;;;;;5067068;28;20219;-77
2022/09/10 00:44:40;;;;;;;2.90;0.60;;;20.70;50.10;;;;;;5067555;28;20204;-79
2022/09/10 00:47:33;;;;;;;1.27;0.50;;;20.90;49.00;;;;;;5061439;28;20245;-80
2022/09/10 00:50:12;;;;;;;0.80;0.60;;;21.00;48.40;;;;;;5054453;28;20669;-83
2022/09/10 00:52:40;;;;;;;1.20;0.70;;;21.30;48.80;;;;;;5059728;28;20188;-84
2022/09/10 00:55:09;;;;;;;0.60;0.50;;;21.30;48.20;;;;;;5071764;28;20195;-82
2022/09/10 00:57:37;;;;;;;0.50;0.50;;;21.10;47.10;;;;;;5058159;28;20210;-85
2022/09/10 01:00:10;;;;;;;0.70;0.60;;;21.20;49.10;;;;;;5059908;28;20208;-79
2022/09/10 01:02:38;;;;;;;0.70;0.50;;;21.40;48.10;;;;;;5069347;28;20563;-80
2022/09/10 01:05:08;;;;;;;0.67;0.57;;;21.30;48.50;;;;;;5056395;28;20678;-85
2022/09/10 01:07:35;;;;;;;0.80;0.50;;;21.60;48.40;;;;;;5057676;28;20206;-81
2022/09/10 01:10:21;;;;;;;0.70;0.53;;;21.50;48.70;;;;;;5061520;28;20207;-79
2022/09/10 01:13:20;;;;;;;0.40;0.40;;;21.50;48.90;;;;;;5060363;28;20720;-81
2022/09/10 01:16:13;;;;;;;2.53;0.70;;;21.60;47.80;;;;;;5056504;28;20282;-79
2022/09/10 01:19:17;;;;;;;0.93;0.50;;;21.60;47.70;;;;;;5054628;28;20535;-83
2022/09/10 01:22:08;;;;;;;1.27;0.60;;;21.40;48.20;;;;;;5055096;28;20207;-77
2022/09/10 01:24:52;;;;;;;1.40;0.70;;;21.80;47.40;;;;;;5052611;28;20225;-82
2022/09/10 01:27:38;;;;;;;0.60;0.60;;;21.70;47.20;;;;;;5058685;28;20188;-85
2022/09/10 01:30:19;;;;;;;0.77;0.70;;;21.60;46.80;;;;;;5064045;28;20708;-84
2022/09/10 01:33:16;;;;;;;0.80;0.40;;;21.70;47.50;;;;;;5071780;28;20608;-84
2022/09/10 01:35:45;;;;;;;0.80;0.50;;;21.80;46.50;;;;;;5088073;28;20598;-77
2022/09/10 01:38:35;;;;;;;0.70;0.40;;;21.40;47.60;;;;;;5065106;28;20183;-80
2022/09/10 01:41:03;;;;;;;2.03;0.57;;;21.10;48.60;;;;;;5069646;28;20227;-75
2022/09/10 01:43:32;;;;;;;0.60;0.43;;;21.10;48.80;;;;;;5069344;28;20600;-77
2022/09/10 01:46:14;;;;;;;2.10;0.60;;;21.20;47.60;;;;;;5073572;28;20186;-81
2022/09/10 01:48:48;;;;;;;0.67;0.47;;;21.00;48.00;;;;;;5063559;28;20175;-82
2022/09/10 01:51:18;;;;;;;0.57;0.57;;;21.50;46.80;;;;;;5058543;28;20188;-77
2022/09/10 01:54:13;;;;;;;1.80;0.60;;;21.80;45.80;;;;;;5052919;28;20739;-75
2022/09/10 01:56:55;;;;;;;2.63;0.40;;;22.20;45.30;;;;;;5053849;28;20200;-84
2022/09/10 01:59:36;;;;;;;0.60;0.40;;;22.70;44.60;;;;;;5062561;28;20285;-75
2022/09/10 02:02:27;;;;;;;0.53;0.53;;;23.00;44.50;;;;;;5074029;28;20182;-72
2022/09/10 02:04:56;;;;;;;0.60;0.50;;;22.80;43.90;;;;;;5065404;28;20187;-72
2022/09/10 02:07:25;;;;;;;0.50;0.50;;;22.80;43.70;;;;;;5060206;28;20182;-76
2022/09/10 02:09:54;;;;;;;0.97;0.50;;;22.70;44.10;;;;;;5071674;28;20179;-77
2022/09/10 02:12:23;;;;;;;2.60;0.60;;;22.20;44.40;;;;;;5053037;28;20596;-81
2022/09/10 02:14:55;;;;;;;0.97;0.50;;;22.30;44.60;;;;;;5053169;28;20208;-82
2022/09/10 02:17:29;;;;;;;0.63;0.47;;;22.30;44.50;;;;;;5053320;28;20180;-81
2022/09/10 02:19:58;;;;;;;0.70;0.50;;;22.30;43.90;;;;;;5052877;28;20192;-85
2022/09/10 02:22:27;;;;;;;0.70;0.50;;;22.90;41.50;;;;;;5053315;28;20172;-82
2022/09/10 02:24:55;;;;;;;1.00;0.60;;;23.00;41.90;;;;;;5063664;28;20184;-80
2022/09/10 02:27:22;;;;;;;1.27;0.53;;;23.00;42.60;;;;;;5051477;28;20767;-80
2022/09/10 02:29:50;;;;;;;0.70;0.60;;;23.20;41.70;;;;;;5051277;28;20232;-74
2022/09/10 02:32:17;;;;;;;0.70;0.40;;;23.00;42.30;;;;;;5052408;28;20263;-85
2022/09/10 02:34:44;;;;;;;1.07;0.50;;;23.20;41.20;;;;;;5051851;28;20212;-79
2022/09/10 02:37:12;;;;;;;0.77;0.50;;;23.40;40.10;;;;;;5052865;28;20206;-79
2022/09/10 02:39:39;;;;;;;0.53;0.50;;;23.70;39.40;;;;;;5053215;28;20245;-78
2022/09/10 02:42:07;;;;;;;0.63;0.50;;;23.70;38.90;;;;;;5063826;28;20231;-77
2022/09/10 02:44:34;;;;;;;0.50;0.47;;;24.00;38.90;;;;;;5052231;28;20180;-78
2022/09/10 02:47:02;;;;;;;0.40;0.30;;;24.00;38.20;;;;;;5052256;28;20238;-79
2022/09/10 02:49:30;;;;;;;0.87;0.47;;;23.90;38.40;;;;;;5052692;28;20168;-81
2022/09/10 02:51:58;;;;;;;0.83;0.40;;;23.50;39.10;;;;;;5052171;28;20544;-80
2022/09/10 02:54:25;;;;;;;0.47;0.40;;;23.80;38.00;;;;;;5052389;28;20223;-79
2022/09/10 02:56:52;;;;;;;0.40;0.30;;;23.70;38.80;;;;;;5052391;28;20194;-84
2022/09/10 02:59:21;;;;;;;0.60;0.50;;;23.50;38.30;;;;;;5055057;28;20194;-76
2022/09/10 03:01:48;;;;;;;0.77;0.50;;;23.40;38.30;;;;;;5052584;28;20202;-81
2022/09/10 03:04:16;;;;;;;2.40;0.40;;;23.70;39.20;;;;;;5052681;28;20250;-79
2022/09/10 03:06:48;;;;;;;0.40;0.40;;;23.20;38.90;;;;;;5052508;28;20322;-77
2022/09/10 03:09:16;;;;;;;0.53;0.47;;;22.80;40.20;;;;;;5053959;28;20198;-83
2022/09/10 03:11:45;;;;;;;1.20;0.40;;;22.70;40.20;;;;;;5053034;28;20176;-77
2022/09/10 03:14:18;;;;;;;1.10;0.40;;;23.00;39.70;;;;;;5068788;28;20203;-78
2022/09/10 03:16:47;;;;;;;0.30;0.30;;;23.70;38.70;;;;;;5065387;28;20570;-76
2022/09/10 03:19:15;;;;;;;0.40;0.40;;;24.30;37.70;;;;;;5054774;28;20233;-80
2022/09/10 03:21:46;;;;;;;0.90;0.50;;;24.80;36.30;;;;;;5053850;28;20184;-85
2022/09/10 03:24:13;;;;;;;0.30;0.30;;;25.10;35.90;;;;;;5052383;28;20215;-77
2022/09/10 03:26:43;;;;;;;0.40;0.30;;;24.80;36.10;;;;;;5052121;28;20181;-81
2022/09/10 03:29:10;;;;;;;0.60;0.40;;;24.90;36.30;;;;;;5052320;28;20184;-73
2022/09/10 03:31:38;;;;;;;0.73;0.50;;;24.60;36.20;;;;;;5052226;28;20256;-78
2022/09/10 03:34:06;;;;;;;1.13;0.40;;;24.50;37.20;;;;;;5052151;28;20219;-81
2022/09/10 03:36:34;;;;;;;0.53;0.50;;;25.20;35.90;;;;;;5052437;28;20184;-77
2022/09/10 03:39:01;;;;;;;0.30;0.30;;;25.30;35.60;;;;;;5056178;28;20575;-75
2022/09/10 03:41:29;;;;;;;0.93;0.30;;;25.30;34.70;;;;;;5051732;28;20710;-79
2022/09/10 03:43:57;;;;;;;0.30;0.30;;;25.30;35.40;;;;;;5051947;28;20175;-83
2022/09/10 03:46:24;;;;;;;0.50;0.40;;;25.80;34.00;;;;;;5052108;28;20670;-84
2022/09/10 03:48:52;;;;;;;0.40;0.40;;;24.40;35.80;;;;;;5050838;28;20305;-76
2022/09/10 03:51:19;;;;;;;0.60;0.30;;;23.70;36.30;;;;;;5053511;28;20187;-83
2022/09/10 03:53:47;;;;;;;0.50;0.40;;;23.90;36.20;;;;;;5071527;28;20203;-77
2022/09/10 03:56:18;;;;;;;1.67;0.40;;;24.70;34.80;;;;;;5063932;28;20271;-77
2022/09/10 03:58:47;;;;;;;0.60;0.40;;;25.00;35.00;;;;;;5055878;28;20664;-75
2022/09/10 04:01:16;;;;;;;2.27;0.30;;;25.40;34.10;;;;;;5056039;28;20263;-79
2022/09/10 04:03:44;;;;;;;0.77;0.37;;;25.00;35.60;;;;;;5055763;28;20277;-77
2022/09/10 04:06:12;;;;;;;1.90;0.40;;;25.20;35.30;;;;;;5055843;28;20179;-78
2022/09/10 04:08:42;;;;;;;0.30;0.30;;;26.30;33.50;;;;;;5066306;28;20654;-79
2022/09/10 04:11:10;;;;;;;1.73;0.40;;;26.70;32.40;;;;;;5075608;28;20167;-83
2022/09/10 04:13:38;;;;;;;0.50;0.37;;;26.70;32.80;;;;;;5055621;28;20207;-79
2022/09/10 04:16:05;;;;;;;0.83;0.40;;;27.00;32.70;;;;;;5055525;28;20233;-77
2022/09/10 04:18:33;;;;;;;0.20;0.20;;;26.50;32.30;;;;;;5055529;28;20186;-79
2022/09/10 04:21:01;;;;;;;0.50;0.30;;;25.80;33.60;;;;;;5055395;28;20618;-77
2022/09/10 04:23:28;;;;;;;0.80;0.60;;;25.30;35.70;;;;;;5054553;28;20279;-77
2022/09/10 04:25:56;;;;;;;0.40;0.30;;;25.80;34.50;;;;;;5056452;28;20287;-79
2022/09/10 04:28:23;;;;;;;0.20;0.20;;;26.60;32.90;;;;;;5053538;28;20222;-79
2022/09/10 04:30:51;;;;;;;4.00;0.33;;;26.40;32.90;;;;;;5054478;28;20217;-78
2022/09/10 04:33:18;;;;;;;0.30;0.30;;;26.50;33.10;;;;;;5054890;28;20199;-81
2022/09/10 04:35:45;;;;;;;1.77;0.40;;;27.00;32.20;;;;;;5054175;28;20195;-81
2022/09/10 04:38:13;;;;;;;0.30;0.30;;;27.10;33.00;;;;;;5055462;28;20172;-80
2022/09/10 04:40:40;;;;;;;0.27;0.27;;;27.30;31.90;;;;;;5055076;28;20180;-80
2022/09/10 04:43:07;;;;;;;0.60;0.47;;;26.90;32.50;;;;;;5055206;28;20185;-79
2022/09/10 04:45:35;;;;;;;0.30;0.30;;;27.40;32.20;;;;;;5055284;28;20259;-76
2022/09/10 04:48:02;;;;;;;0.53;0.30;;;27.60;31.40;;;;;;5054993;28;20183;-81
2022/09/10 04:50:30;;;;;;;0.20;0.20;;;27.70;31.90;;;;;;5057236;28;20258;-79
2022/09/10 04:52:57;;;;;;;0.30;0.30;;;27.80;31.70;;;;;;5064594;28;20212;-82
2022/09/10 04:55:25;;;;;;;0.27;0.27;;;27.10;32.70;;;;;;5069829;28;20637;-81
2022/09/10 04:57:53;;;;;;;0.40;0.23;;;26.00;33.80;;;;;;5075316;28;20319;-79
2022/09/10 05:00:21;;;;;;;0.40;0.30;;;25.60;33.90;;;;;;5061357;28;20175;-79
2022/09/10 05:02:48;;;;;;;1.17;0.40;;;25.50;34.40;;;;;;5063813;28;20179;-78
2022/09/10 05:05:16;;;;;;;0.53;0.30;;;26.00;33.40;;;;;;5054474;28;20176;-76
2022/09/10 05:07:43;;;;;;;1.00;0.33;;;25.50;33.30;;;;;;5068425;28;20244;-81
2022/09/10 05:10:12;;;;;;;0.40;0.37;;;24.80;34.30;;;;;;5055475;28;20199;-75
2022/09/10 05:12:39;;;;;;;2.20;0.50;;;25.00;34.00;;;;;;5066552;28;20176;-79
2022/09/10 05:15:08;;;;;;;1.90;0.40;;;25.70;33.80;;;;;;5066675;28;20363;-76
2022/09/10 05:17:36;;;;;;;0.30;0.30;;;26.40;32.20;;;;;;5054646;28;20661;-80
2022/09/10 05:20:06;;;;;;;1.70;0.30;;;27.00;31.10;;;;;;5053897;28;20267;-81
2022/09/10 05:22:34;;;;;;;0.30;0.30;;;26.40;32.00;;;;;;5056669;28;20195;-78
2022/09/10 05:25:03;;;;;;;0.90;0.40;;;26.30;32.10;;;;;;5056284;28;20168;-82
2022/09/10 05:27:30;;;;;;;0.70;0.30;;;26.60;31.50;;;;;;5054155;28;20210;-81
2022/09/10 05:29:58;;;;;;;2.37;0.37;;;26.10;32.60;;;;;;5053579;28;20245;-77
2022/09/10 05:32:25;;;;;;;0.30;0.30;;;24.90;34.30;;;;;;5053333;28;20203;-78
2022/09/10 05:34:53;;;;;;;1.73;0.30;;;25.80;33.00;;;;;;5054068;28;20717;-76
2022/09/10 05:37:21;;;;;;;0.57;0.40;;;25.30;36.10;;;;;;5059464;28;20183;-76
2022/09/10 05:39:48;;;;;;;1.97;0.40;;;23.40;42.10;;;;;;5053834;28;20179;-77
2022/09/10 05:42:16;;;;;;;0.73;0.40;;;22.80;44.60;;;;;;5057889;28;20298;-78
2022/09/10 05:44:44;;;;;;;0.50;0.50;;;23.10;45.20;;;;;;5068958;28;20201;-75
2022/09/10 05:47:11;;;;;;;0.70;0.40;;;24.10;43.10;;;;;;5073338;28;20179;-78
2022/09/10 05:49:39;;;;;;;0.87;0.50;;;23.90;43.70;;;;;;5064793;28;20180;-76
2022/09/10 05:52:07;;;;;;;0.30;0.30;;;24.10;40.50;;;;;;5053421;28;20179;-75
2022/09/10 05:54:34;;;;;;;0.63;0.50;;;24.30;39.20;;;;;;5054724;28;20227;-78
2022/09/10 05:57:02;;;;;;;0.43;0.40;;;25.30;38.00;;;;;;5066509;28;20190;-75
2022/09/10 05:59:29;;;;;;;0.43;0.30;;;25.80;36.00;;;;;;5053558;28;20257;-77
2022/09/10 06:01:57;;;;;;;0.77;0.40;;;24.50;36.60;;;;;;5053238;28;20237;-81
2022/09/10 06:04:25;;;;;;;1.17;0.43;;;24.30;36.80;;;;;;5053134;28;20218;-74
2022/09/10 06:06:53;;;;;;;0.30;0.30;;;24.40;36.20;;;;;;5061264;28;20266;-78
2022/09/10 06:09:20;;;;;;;0.40;0.40;;;24.50;36.00;;;;;;5058499;28;20180;-75
2022/09/10 06:11:49;;;;;;;0.40;0.40;;;24.70;35.70;;;;;;5052402;28;20232;-75
2022/09/10 06:14:16;;;;;;;1.10;0.60;;;24.90;35.50;;;;;;5058482;28;20548;-78
2022/09/10 06:16:44;;;;;;;0.40;0.40;;;24.20;36.90;;;;;;5060086;28;20187;-80
2022/09/10 06:19:11;;;;;;;0.80;0.40;;;25.40;34.70;;;;;;5053060;28;20191;-79
2022/09/10 06:21:39;;;;;;;0.30;0.30;;;25.80;33.70;;;;;;5061886;28;20240;-75
2022/09/10 06:24:06;;;;;;;0.30;0.30;;;26.00;32.90;;;;;;5056287;28;20216;-79
2022/09/10 06:26:35;;;;;;;1.07;0.40;;;26.10;33.40;;;;;;5052238;28;20575;-80
2022/09/10 06:29:04;;;;;;;0.30;0.30;;;25.80;32.90;;;;;;5053058;28;20639;-81
2022/09/10 06:31:33;;;;;;;0.30;0.30;;;25.50;33.20;;;;;;5052188;28;20267;-77
2022/09/10 06:34:02;;;;;;;0.50;0.30;;;25.40;33.40;;;;;;5056063;28;20622;-77
2022/09/10 06:36:32;;;;;;;0.20;0.20;;;25.40;34.10;;;;;;5052826;28;20642;-78
2022/09/10 06:39:00;;;;;;;0.30;0.30;;;25.10;34.20;;;;;;5063271;28;20225;-80
2022/09/10 06:41:29;;;;;;;1.07;0.30;;;24.00;36.40;;;;;;5052340;28;20227;-82
2022/09/10 06:43:58;;;;;;;0.50;0.40;;;23.40;37.70;;;;;;5053903;28;20175;-83
2022/09/10 06:46:26;;;;;;;0.77;0.60;;;22.90;39.60;;;;;;5062641;28;20164;-78
2022/09/10 06:48:59;;;;;;;1.87;0.60;;;22.90;40.10;;;;;;5052792;28;20417;-80
2022/09/10 06:51:28;;;;;;;1.20;0.67;;;24.40;37.50;;;;;;5066253;28;20723;-76
2022/09/10 06:53:56;;;;;;;0.30;0.30;;;24.90;36.20;;;;;;5052576;28;20613;-80
2022/09/10 06:56:24;;;;;;;0.37;0.37;;;24.60;36.20;;;;;;5058829;28;20514;-81
2022/09/10 06:58:56;;;;;;;0.40;0.40;;;24.30;37.20;;;;;;5058758;28;20251;-77
2022/09/10 07:01:24;;;;;;;0.60;0.37;;;24.20;37.90;;;;;;5052689;28;20171;-78
2022/09/10 07:03:59;;;;;;;0.50;0.40;;;24.40;37.30;;;;;;5059380;28;20179;-77
2022/09/10 07:06:30;;;;;;;0.80;0.53;;;24.60;37.30;;;;;;5057770;28;20202;-79
2022/09/10 07:08:58;;;;;;;0.50;0.50;;;24.90;37.20;;;;;;5061533;28;20645;-80
2022/09/10 07:11:31;;;;;;;0.93;0.60;;;24.20;38.10;;;;;;5064922;28;20183;-80
2022/09/10 07:14:00;;;;;;;0.57;0.50;;;23.90;38.80;;;;;;5060510;28;20206;-79
2022/09/10 07:16:28;;;;;;;0.50;0.50;;;23.70;39.20;;;;;;5055544;28;20180;-78
2022/09/10 07:18:58;;;;;;;0.77;0.50;;;23.10;40.40;;;;;;5052280;28;20176;-78
2022/09/10 07:21:27;;;;;;;2.13;0.43;;;22.60;41.90;;;;;;5052183;28;20188;-78
2022/09/10 07:24:02;;;;;;;0.80;0.60;;;22.30;42.70;;;;;;5059309;28;20286;-76
2022/09/10 07:26:30;;;;;;;2.60;0.67;;;22.10;43.10;;;;;;5060686;28;20235;-79
2022/09/10 07:28:58;;;;;;;0.93;0.83;;;21.90;43.90;;;;;;5061487;28;20219;-77
2022/09/10 07:31:34;;;;;;;0.73;0.70;;;21.70;44.30;;;;;;5068438;28;20268;-78
2022/09/10 07:34:02;;;;;;;1.17;0.57;;;21.40;44.50;;;;;;5058862;28;20227;-81
2022/09/10 07:36:30;;;;;;;0.83;0.70;;;21.30;44.70;;;;;;5053738;28;20180;-81
2022/09/10 07:39:00;;;;;;;1.13;0.80;;;21.10;44.70;;;;;;5058436;28;20322;-85
2022/09/10 07:41:29;;;;;;;3.57;1.00;;;21.10;45.10;;;;;;5054908;28;20223;-81
2022/09/10 07:43:57;;;;;;;1.53;0.90;;;21.00;51.10;;;;;;5064569;28;20194;-83
2022/09/10 07:46:26;;;;;;;4.17;1.47;;;20.90;53.50;;;;;;5066676;28;20549;-86
2022/09/10 07:48:56;;;;;;;3.23;1.40;;;20.80;55.50;;;;;;5057009;28;20253;-86
2022/09/10 07:51:25;;;;;;;3.87;1.70;;;20.70;56.60;;;;;;5055219;28;20271;-84
2022/09/10 07:53:57;;;;;;;8.43;1.40;;;20.50;57.80;;;;;;5055505;28;20265;-85
2022/09/10 07:56:25;;;;;;;4.03;1.67;;;20.30;59.00;;;;;;5053931;28;20715;-85
2022/09/10 07:58:55;;;;;;;6.77;1.70;;;20.20;59.40;;;;;;5055782;28;20183;-82
2022/09/10 08:01:23;;;;;;;5.93;1.50;;;20.10;59.80;;;;;;5059948;28;20168;-83
2022/09/10 08:03:51;;;;;;;7.33;1.40;;;20.10;59.70;;;;;;5055710;28;20180;-80
2022/09/10 08:06:19;;;;;;;3.47;1.33;;;19.90;60.40;;;;;;5059007;28;20213;-83
2022/09/10 08:08:46;;;;;;;3.83;1.27;;;19.90;60.60;;;;;;5061442;28;20187;-83
2022/09/10 08:11:16;;;;;;;2.17;1.20;;;19.70;60.60;;;;;;5056220;28;20184;-85
2022/09/10 08:13:49;;;;;;;4.07;1.40;;;19.70;60.20;;;;;;5069959;28;20208;-83
2022/09/10 08:16:20;;;;;;;4.50;1.30;;;19.70;60.40;;;;;;5070056;28;20188;-87
2022/09/10 08:18:49;;;;;;;4.63;1.50;;;19.70;60.20;;;;;;5060290;28;20547;-86
2022/09/10 08:21:18;;;;;;;4.50;1.23;;;19.70;60.60;;;;;;5072381;28;20231;-78
2022/09/10 08:23:52;;;;;;;5.70;1.60;;;19.70;60.60;;;;;;5053283;28;20184;-80
2022/09/10 08:26:23;;;;;;;4.70;1.60;;;19.60;60.80;;;;;;5054841;28;20652;-81
2022/09/10 08:28:55;;;;;;;4.10;1.00;;;19.70;60.90;;;;;;5055487;28;20179;-79
2022/09/10 08:31:25;;;;;;;4.57;1.60;;;19.70;60.90;;;;;;5055041;28;20585;-78
2022/09/10 08:33:54;;;;;;;5.37;2.07;;;19.50;61.00;;;;;;5054431;28;20196;-83
2022/09/10 08:36:23;;;;;;;2.87;2.20;;;19.40;61.10;;;;;;5080990;28;20171;-78
2022/09/10 08:38:51;;;;;;;7.73;2.93;;;19.50;60.60;;;;;;5063254;28;20180;-81
2022/09/10 08:41:37;;;;;;;5.33;3.33;;;19.50;60.30;;;;;;5053717;28;20212;-81
2022/09/10 08:44:14;;;;;;;5.87;3.77;;;19.40;59.80;;;;;;5069974;28;20192;-77
2022/09/10 08:46:59;;;;;;;4.27;2.23;;;19.40;56.40;;;;;;5061427;28;20617;-78
2022/09/10 08:49:34;;;;;;;3.70;2.23;;;19.40;53.70;;;;;;5056829;28;20540;-83
2022/09/10 08:52:33;;;;;;;1.67;1.47;;;19.50;53.90;;;;;;5052831;28;20203;-77
2022/09/10 08:55:12;;;;;;;3.73;1.53;;;19.50;52.20;;;;;;5054717;28;20229;-80
2022/09/10 08:57:58;;;;;;;1.60;1.40;;;19.60;52.50;;;;;;5068402;28;20180;-78
2022/09/10 09:00:31;;;;;;;1.93;1.53;;;19.60;51.80;;;;;;5054409;28;20233;-76
2022/09/10 09:03:12;;;;;;;3.33;1.87;;;19.50;51.90;;;;;;5054163;28;20258;-78
2022/09/10 09:06:20;;;;;;;1.60;1.33;;;19.50;52.10;;;;;;5059179;28;20599;-77
2022/09/10 09:08:49;;;;;;;2.27;1.60;;;19.50;51.80;;;;;;5074817;28;20187;-77
2022/09/10 09:11:26;;;;;;;4.77;1.50;;;19.40;52.00;;;;;;5058229;28;20694;-82
2022/09/10 09:14:02;;;;;;;2.47;1.60;;;19.40;52.40;;;;;;5059838;28;20215;-77
2022/09/10 09:17:00;;;;;;;1.30;1.20;;;19.30;52.10;;;;;;5054477;28;20241;-81
2022/09/10 09:19:44;;;;;;;2.97;1.80;;;19.30;52.40;;;;;;5067392;28;20171;-79
2022/09/10 09:22:44;;;;;;;2.23;1.40;;;19.20;52.70;;;;;;5062971;28;20183;-77
2022/09/10 09:25:46;;;;;;;2.23;1.50;;;19.20;53.00;;;;;;5056385;28;20180;-79
2022/09/10 09:28:58;;;;;;;3.37;1.40;;;19.10;53.40;;;;;;5052646;28;20183;-83
2022/09/10 09:31:27;;;;;;;1.40;1.17;;;19.00;53.70;;;;;;5061748;28;20175;-78
2022/09/10 09:34:05;;;;;;;1.97;1.40;;;19.00;53.50;;;;;;5056975;28;20288;-77
2022/09/10 09:36:41;;;;;;;2.67;1.90;;;18.90;53.90;;;;;;5058664;28;20176;-77
2022/09/10 09:39:40;;;;;;;1.33;1.23;;;18.90;53.90;;;;;;5059744;28;20226;-77
2022/09/10 09:42:11;;;;;;;0.90;0.90;;;18.90;53.90;;;;;;5060549;28;20690;-75
2022/09/10 09:44:51;;;;;;;1.50;1.30;;;18.90;54.00;;;;;;5063224;28;20171;-83
2022/09/10 09:47:19;;;;;;;1.77;1.20;;;18.90;54.40;;;;;;5061027;28;20183;-78
2022/09/10 09:49:46;;;;;;;2.07;1.40;;;18.80;54.50;;;;;;5061765;28;20186;-74
2022/09/10 09:52:26;;;;;;;2.20;1.67;;;18.80;54.80;;;;;;5065909;28;20187;-76
2022/09/10 09:55:05;;;;;;;2.13;1.40;;;18.80;54.90;;;;;;5061220;28;20261;-76
2022/09/10 09:57:33;;;;;;;1.87;0.90;;;18.80;55.30;;;;;;5065402;28;20558;-74
2022/09/10 10:00:35;;;;;;;1.27;1.17;;;18.70;55.20;;;;;;5060328;28;20171;-82
2022/09/10 10:03:13;;;;;;;1.00;0.83;;;18.70;55.30;;;;;;5066249;28;20179;-83
2022/09/10 10:05:41;;;;;;;1.20;1.10;;;18.70;55.40;;;;;;5063487;28;20179;-80
2022/09/10 10:08:32;;;;;;;1.70;1.10;;;18.60;55.50;;;;;;5067232;28;20168;-78
2022/09/10 10:11:00;;;;;;;1.10;0.90;;;18.50;55.30;;;;;;5072071;28;20175;-79
2022/09/10 10:13:37;;;;;;;1.40;1.00;;;18.50;55.30;;;;;;5076661;28;20674;-82
2022/09/10 10:16:32;;;;;;;1.20;1.10;;;18.40;55.50;;;;;;5056442;28;20225;-78
2022/09/10 10:19:00;;;;;;;1.10;1.00;;;18.40;55.40;;;;;;5061047;28;20181;-79
2022/09/10 10:21:35;;;;;;;0.80;0.70;;;18.30;55.60;;;;;;5057428;28;20350;-80
2022/09/10 10:24:04;;;;;;;1.50;1.10;;;18.40;55.60;;;;;;5057435;28;20195;-78
2022/09/10 10:26:34;;;;;;;1.80;0.93;;;18.30;55.50;;;;;;5077979;28;20178;-76
2022/09/10 10:29:16;;;;;;;0.70;0.63;;;18.30;55.10;;;;;;5068439;28;20168;-79
2022/09/10 10:31:49;;;;;;;3.23;0.77;;;18.30;55.10;;;;;;5056525;28;20541;-75
2022/09/10 10:34:36;;;;;;;0.60;0.60;;;18.30;55.00;;;;;;5059184;28;20203;-75
2022/09/10 10:37:15;;;;;;;0.70;0.57;;;18.30;54.90;;;;;;5055742;28;20226;-77
2022/09/10 10:39:46;;;;;;;0.77;0.70;;;18.30;54.90;;;;;;5060024;28;20186;-76
2022/09/10 10:42:35;;;;;;;1.43;0.80;;;18.30;55.10;;;;;;5078393;28;20227;-82
2022/09/10 10:45:23;;;;;;;1.40;0.80;;;18.30;55.00;;;;;;5079049;28;20533;-81
2022/09/10 10:48:11;;;;;;;0.80;0.63;;;18.20;55.30;;;;;;5070167;28;20225;-80
2022/09/10 10:50:49;;;;;;;0.60;0.60;;;18.20;55.70;;;;;;5080682;28;20265;-79
2022/09/10 10:53:44;;;;;;;0.50;0.50;;;18.00;55.90;;;;;;5064487;28;20213;-80
2022/09/10 10:56:12;;;;;;;1.07;0.77;;;18.00;56.30;;;;;;5052544;28;20183;-77
2022/09/10 10:58:47;;;;;;;0.77;0.70;;;17.90;56.50;;;;;;5052525;28;20168;-76
2022/09/10 11:01:17;;;;;;;1.53;0.80;;;17.90;56.70;;;;;;5052940;28;20524;-75
2022/09/10 11:03:50;;;;;;;1.53;1.00;;;17.90;57.10;;;;;;5060550;28;20186;-75
2022/09/10 11:06:23;;;;;;;0.87;0.80;;;17.80;57.40;;;;;;5077748;28;20243;-74
2022/09/10 11:09:21;;;;;;;1.27;0.80;;;17.80;57.60;;;;;;5071807;28;20527;-75
2022/09/10 11:12:12;;;;;;;1.03;0.83;;;17.70;58.20;;;;;;5071300;28;20184;-74
2022/09/10 11:15:15;;;;;;;1.20;0.80;;;17.70;59.00;;;;;;5067505;28;20254;-77
2022/09/10 11:18:25;;;;;;;1.50;0.90;;;17.60;59.10;;;;;;5052320;28;20179;-76
2022/09/10 11:21:07;;;;;;;1.30;0.90;;;17.50;59.40;;;;;;5043385;28;20607;-74
2022/09/10 11:23:50;;;;;;;1.70;0.90;;;17.50;60.00;;;;;;5061808;28;20211;-77
2022/09/10 11:26:43;;;;;;;1.83;1.20;;;17.40;60.30;;;;;;5064662;28;20657;-75
2022/09/10 11:29:26;;;;;;;1.53;1.03;;;17.30;61.10;;;;;;5051579;28;20191;-76
2022/09/10 11:32:03;;;;;;;1.03;0.90;;;17.30;61.50;;;;;;5051881;28;20175;-76
2022/09/10 11:34:48;;;;;;;1.20;0.87;;;17.20;61.90;;;;;;5059383;28;20212;-75
2022/09/10 11:37:43;;;;;;;1.90;1.00;;;17.20;62.10;;;;;;5051133;28;20918;-79
2022/09/10 11:40:51;;;;;;;1.43;0.90;;;17.10;62.50;;;;;;5051104;28;20594;-77
2022/09/10 11:43:53;;;;;;;1.70;1.10;;;17.10;62.50;;;;;;5064018;28;20223;-81
2022/09/10 11:46:27;;;;;;;2.57;1.00;;;17.10;62.40;;;;;;5060859;28;20214;-75
2022/09/10 11:49:16;;;;;;;1.43;1.07;;;17.20;62.30;;;;;;5051981;28;20183;-75
2022/09/10 11:51:46;;;;;;;1.97;1.03;;;17.20;62.40;;;;;;5063348;28;20194;-77
2022/09/10 11:54:24;;;;;;;1.37;1.10;;;17.20;62.00;;;;;;5052271;28;20212;-77
2022/09/10 11:57:18;;;;;;;2.03;1.20;;;17.20;61.90;;;;;;5065862;28;20179;-74
2022/09/10 12:00:16;;;;;;;1.97;1.47;;;17.20;62.10;;;;;;5048411;28;20194;-77
2022/09/10 12:03:04;;;;;;;2.00;1.40;;;17.20;62.10;;;;;;5051915;28;20682;-75
2022/09/10 12:05:44;;;;;;;2.50;1.40;;;17.20;61.90;;;;;;5051550;28;20217;-75
2022/09/10 12:08:37;;;;;;;1.73;1.23;;;17.30;62.00;;;;;;5054907;28;20168;-76
2022/09/10 12:11:28;;;;;;;2.03;1.00;;;17.30;61.80;;;;;;5065020;28;20207;-77
2022/09/10 12:13:57;;;;;;;1.40;1.10;;;17.30;61.90;;;;;;5054465;28;20231;-75
2022/09/10 12:16:46;;;;;;;1.80;1.00;;;17.30;61.80;;;;;;5058358;28;20244;-77
2022/09/10 12:19:39;;;;;;;2.33;1.20;;;17.30;62.00;;;;;;5055187;28;20299;-77
2022/09/10 12:22:17;;;;;;;1.27;1.03;;;17.30;62.00;;;;;;5050454;28;20199;-75
2022/09/10 12:24:59;;;;;;;1.30;1.20;;;17.30;62.20;;;;;;5069732;28;20188;-74
2022/09/10 12:27:47;;;;;;;1.17;1.00;;;17.20;62.20;;;;;;5055437;28;20637;-75
2022/09/10 12:30:30;;;;;;;1.20;1.10;;;17.30;62.30;;;;;;5063684;28;20186;-78
2022/09/10 12:32:59;;;;;;;1.27;1.00;;;17.20;62.00;;;;;;5066933;28;20219;-79
2022/09/10 12:35:36;;;;;;;1.57;0.87;;;17.20;62.30;;;;;;5057643;28;20194;-80
2022/09/10 12:38:40;;;;;;;1.47;1.00;;;17.10;62.50;;;;;;5059323;28;20167;-78
2022/09/10 12:41:33;;;;;;;1.20;0.90;;;17.10;63.00;;;;;;5060223;28;20221;-74
2022/09/10 12:44:35;;;;;;;1.17;1.07;;;17.10;62.70;;;;;;5054534;28;20191;-78
2022/09/10 12:47:14;;;;;;;1.10;1.00;;;17.00;63.10;;;;;;5055236;28;20504;-74
2022/09/10 12:49:57;;;;;;;2.00;0.93;;;17.00;63.00;;;;;;5072951;28;21914;-74
2022/09/10 12:52:48;;;;;;;2.03;1.20;;;17.00;63.30;;;;;;5066584;28;20812;-75
2022/09/10 12:55:35;;;;;;;3.23;1.30;;;17.00;63.60;;;;;;5074699;28;20723;-76
2022/09/10 12:58:23;;;;;;;1.63;1.10;;;17.00;63.90;;;;;;5055859;28;20550;-76
2022/09/10 13:01:04;;;;;;;2.17;1.07;;;16.90;63.80;;;;;;5055033;28;20186;-75
2022/09/10 13:03:31;;;;;;;1.23;1.00;;;16.90;64.10;;;;;;5064019;28;20179;-75
2022/09/10 13:06:05;;;;;;;1.50;1.13;;;16.80;64.10;;;;;;5055183;28;20195;-76
2022/09/10 13:08:42;;;;;;;1.20;1.10;;;16.80;64.20;;;;;;5067092;28;20180;-79
2022/09/10 13:11:36;;;;;;;1.07;0.90;;;16.80;64.50;;;;;;5054542;28;20175;-78
2022/09/10 13:14:05;;;;;;;1.33;1.00;;;16.90;64.50;;;;;;5054091;28;20219;-76
2022/09/10 13:16:33;;;;;;;1.40;1.13;;;16.80;64.00;;;;;;5058936;28;20645;-77
2022/09/10 13:19:13;;;;;;;1.97;1.10;;;16.70;64.30;;;;;;5054367;28;20187;-80
2022/09/10 13:21:43;;;;;;;3.03;1.13;;;16.70;64.00;;;;;;5070808;28;20191;-78
2022/09/10 13:24:35;;;;;;;1.30;0.90;;;16.70;64.60;;;;;;5063633;28;20546;-77
2022/09/10 13:27:09;;;;;;;1.20;1.00;;;16.60;64.50;;;;;;5064542;28;20186;-80